Time;durP1;ratioP1;P1;durP2;ratioP2;P2;SDS_P1;SDS_P2;PMS_P1;PMS_P2;Temp;Humidity;BMP_temperature;BMP_pressure;BME280_temperature;BME280_humidity;BME280_pressure;Samples;Min_cycle;Max_cycle;Signal;HPM_P1;HPM_P2
2022/05/31 00:00:09;;;;;;;;;;;;;;;10.60;62.61;101317.06;5073127;28;19921;-61
2022/05/31 00:02:35;;;;;;;;;;;;;;;10.57;62.55;101306.72;5060599;28;20310;-61
2022/05/31 00:05:00;;;;;;;;;;;;;;;10.54;62.70;101309.69;5067770;28;19920;-61
2022/05/31 00:07:26;;;;;;;;;;;;;;;10.53;63.42;101305.38;5070115;28;19920;-61
2022/05/31 00:09:51;;;;;;;;;;;;;;;10.53;62.41;101305.38;5069349;28;20449;-61
2022/05/31 00:12:16;;;;;;;;;;;;;;;10.51;63.11;101296.72;5079380;28;19920;-62
2022/05/31 00:14:42;;;;;;;;;;;;;;;10.49;63.15;101302.22;5075870;28;19924;-61
2022/05/31 00:17:07;;;;;;;;;;;;;;;10.48;63.13;101297.03;5069677;28;19932;-61
2022/05/31 00:19:32;;;;;;;;;;;;;;;10.45;63.07;101297.34;5052320;28;20474;-62
2022/05/31 00:22:06;;;;;;;;;;;;;;;10.43;62.70;101304.59;5071613;28;19928;-63
2022/05/31 00:24:31;;;;;;;;;;;;;;;10.39;62.98;101303.19;5056477;28;20297;-62
2022/05/31 00:26:57;;;;;;;;;;;;;;;10.34;63.05;101291.25;5070546;28;19925;-62
2022/05/31 00:29:22;;;;;;;;;;;;;;;10.33;62.79;101299.34;5057637;28;19927;-63
2022/05/31 00:31:48;;;;;;;;;;;;;;;10.28;63.32;101302.44;5073017;28;19920;-62
2022/05/31 00:34:14;;;;;;;;;;;;;;;10.27;63.46;101299.94;5068380;28;20358;-62
2022/05/31 00:36:40;;;;;;;;;;;;;;;10.25;63.55;101302.72;5073331;28;19931;-62
2022/05/31 00:39:06;;;;;;;;;;;;;;;10.23;63.74;101299.41;5075622;28;19999;-61
2022/05/31 00:41:33;;;;;;;;;;;;;;;10.22;63.71;101305.69;5073250;28;20019;-62
2022/05/31 00:44:09;;;;;;;;;;;;;;;10.19;63.55;101298.84;5083541;28;19982;-62
2022/05/31 00:46:46;;;;;;;;;;;;;;;10.17;63.88;101297.34;5073427;28;19951;-62
2022/05/31 00:49:13;;;;;;;;;;;;;;;10.14;64.16;101300.25;5074391;28;19930;-62
2022/05/31 00:51:42;;;;;;;;;;;;;;;10.13;64.14;101303.91;5074311;28;19924;-62
2022/05/31 00:54:10;;;;;;;;;;;;;;;10.09;63.73;101301.56;5073872;28;20366;-61
2022/05/31 00:56:36;;;;;;;;;;;;;;;10.06;63.54;101299.19;5074708;28;19946;-62
2022/05/31 00:59:07;;;;;;;;;;;;;;;10.04;64.84;101300.31;5060609;28;19924;-62
2022/05/31 01:01:35;;;;;;;;;;;;;;;10.02;64.71;101300.44;5066937;28;19924;-62
2022/05/31 01:04:00;;;;;;;;;;;;;;;10.00;64.28;101299.78;5074589;28;19927;-62
2022/05/31 01:06:25;;;;;;;;;;;;;;;9.99;64.76;101303.41;5072045;28;19928;-62
2022/05/31 01:08:53;;;;;;;;;;;;;;;9.97;64.86;101305.38;5080328;28;19947;-61
2022/05/31 01:11:20;;;;;;;;;;;;;;;9.92;64.14;101302.34;5074271;28;19920;-61
2022/05/31 01:13:45;;;;;;;;;;;;;;;9.89;64.18;101292.00;5053730;28;20277;-62
2022/05/31 01:16:12;;;;;;;;;;;;;;;9.88;64.85;101296.50;5075289;28;19929;-62
2022/05/31 01:18:38;;;;;;;;;;;;;;;9.89;63.84;101297.31;5074865;28;19928;-61
2022/05/31 01:21:03;;;;;;;;;;;;;;;9.88;64.17;101295.66;5078165;28;19925;-62
2022/05/31 01:23:40;;;;;;;;;;;;;;;9.85;64.94;101295.91;5073855;28;20389;-62
2022/05/31 01:26:16;;;;;;;;;;;;;;;9.81;64.79;101290.94;5071103;28;20035;-61
2022/05/31 01:29:01;;;;;;;;;;;;;;;9.79;65.24;101290.25;5070686;28;20386;-62
2022/05/31 01:32:05;;;;;;;;;;;;;;;9.74;64.71;101284.56;5072241;28;20046;-61
2022/05/31 01:34:32;;;;;;;;;;;;;;;9.64;65.54;101281.94;4990276;28;19926;-62
2022/05/31 01:36:58;;;;;;;;;;;;;;;9.58;65.88;101284.31;4983305;28;20362;-63
2022/05/31 01:39:23;;;;;;;;;;;;;;;9.53;65.21;101288.22;5024634;28;19929;-62
2022/05/31 01:41:52;;;;;;;;;;;;;;;9.52;65.64;101283.09;5069796;28;19921;-62
2022/05/31 01:44:18;;;;;;;;;;;;;;;9.52;65.49;101275.97;5072919;28;19920;-62
2022/05/31 01:46:46;;;;;;;;;;;;;;;9.49;65.52;101281.56;5072844;28;19961;-61
2022/05/31 01:49:13;;;;;;;;;;;;;;;9.48;66.39;101279.06;5076299;28;19928;-61
2022/05/31 01:51:40;;;;;;;;;;;;;;;9.47;65.45;101286.16;5073668;28;20007;-62
2022/05/31 01:54:07;;;;;;;;;;;;;;;9.46;65.79;101281.84;5074689;28;19921;-61
2022/05/31 01:56:33;;;;;;;;;;;;;;;9.45;66.73;101285.47;5052646;28;19924;-61
2022/05/31 01:58:59;;;;;;;;;;;;;;;9.42;66.49;101280.44;5072311;28;19928;-62
2022/05/31 02:01:26;;;;;;;;;;;;;;;9.42;65.95;101285.75;5067100;28;19920;-62
2022/05/31 02:03:51;;;;;;;;;;;;;;;9.41;65.78;101286.72;5076543;28;20401;-61
2022/05/31 02:06:25;;;;;;;;;;;;;;;9.38;65.52;101287.03;5069686;28;19920;-61
2022/05/31 02:08:50;;;;;;;;;;;;;;;9.40;65.98;101277.13;5073036;28;19921;-62
2022/05/31 02:11:16;;;;;;;;;;;;;;;9.38;66.45;101279.91;5076589;28;19928;-62
2022/05/31 02:13:41;;;;;;;;;;;;;;;9.34;65.90;101275.03;5087742;28;19925;-62
2022/05/31 02:16:07;;;;;;;;;;;;;;;9.32;65.49;101269.88;5079979;28;20013;-62
2022/05/31 02:21:16;;;;;;;;;;;;;;;9.34;66.26;101277.69;5070159;28;19931;-62
2022/05/31 02:23:41;;;;;;;;;;;;;;;9.36;66.49;101270.44;5067008;28;20532;-62
2022/05/31 02:26:06;;;;;;;;;;;;;;;9.38;66.48;101273.78;5072226;28;20007;-62
2022/05/31 02:28:31;;;;;;;;;;;;;;;9.40;65.95;101271.81;5071746;28;19921;-62
2022/05/31 02:30:57;;;;;;;;;;;;;;;9.40;66.24;101269.19;5072323;28;19928;-62
2022/05/31 02:33:22;;;;;;;;;;;;;;;9.40;66.21;101263.88;5071119;28;19924;-61
2022/05/31 02:35:47;;;;;;;;;;;;;;;9.41;66.82;101262.91;5070218;28;19927;-62
2022/05/31 02:38:12;;;;;;;;;;;;;;;9.41;66.85;101262.91;5068849;28;19959;-62
2022/05/31 02:40:38;;;;;;;;;;;;;;;9.40;66.86;101267.38;5071320;28;19924;-62
2022/05/31 02:43:03;;;;;;;;;;;;;;;9.38;67.27;101257.91;5053598;28;19920;-61
2022/05/31 02:45:28;;;;;;;;;;;;;;;9.37;67.01;101261.53;5071777;28;19974;-62
2022/05/31 02:47:53;;;;;;;;;;;;;;;9.37;66.58;101256.25;5069378;28;20003;-61
2022/05/31 02:50:18;;;;;;;;;;;;;;;9.38;66.85;101252.63;5069202;28;20025;-62
2022/05/31 02:52:44;;;;;;;;;;;;;;;9.39;66.93;101264.88;5034003;28;20008;-61
2022/05/31 02:55:09;;;;;;;;;;;;;;;9.40;66.51;101262.09;5070950;28;19951;-62
2022/05/31 02:57:34;;;;;;;;;;;;;;;9.42;66.74;101256.63;5055296;28;19921;-61
2022/05/31 02:59:59;;;;;;;;;;;;;;;9.41;66.03;101253.16;5071283;28;19956;-62
2022/05/31 03:02:24;;;;;;;;;;;;;;;9.43;67.14;101258.31;5062723;28;19928;-62
2022/05/31 03:04:49;;;;;;;;;;;;;;;9.42;66.83;101260.13;5052590;28;19920;-61
2022/05/31 03:07:15;;;;;;;;;;;;;;;9.43;67.66;101255.66;5071877;28;19921;-61
2022/05/31 03:09:40;;;;;;;;;;;;;;;9.41;66.79;101258.44;5071095;28;20015;-62
2022/05/31 03:12:09;;;;;;;;;;;;;;;9.39;66.68;101254.28;5074307;28;19924;-61
2022/05/31 03:14:45;;;;;;;;;;;;;;;9.36;66.94;101254.53;5066270;28;19925;-62
2022/05/31 03:17:14;;;;;;;;;;;;;;;9.33;66.88;101249.56;5064737;28;19921;-61
2022/05/31 03:19:44;;;;;;;;;;;;;;;9.34;66.72;101252.06;5072498;28;19995;-62
2022/05/31 03:22:13;;;;;;;;;;;;;;;9.35;66.99;101258.19;5072341;28;19924;-61
2022/05/31 03:24:41;;;;;;;;;;;;;;;9.35;67.86;101242.28;5070550;28;19982;-62
2022/05/31 03:27:08;;;;;;;;;;;;;;;9.36;67.39;101249.25;5066604;28;20456;-62
2022/05/31 03:29:35;;;;;;;;;;;;;;;9.35;67.00;101247.59;5072088;28;19926;-62
2022/05/31 03:32:00;;;;;;;;;;;;;;;9.37;67.47;101245.66;5071430;28;19924;-62
2022/05/31 03:34:26;;;;;;;;;;;;;;;9.36;67.32;101244.81;5068541;28;19936;-62
2022/05/31 03:36:51;;;;;;;;;;;;;;;9.36;67.68;101243.97;5066807;28;19977;-62
2022/05/31 03:39:16;;;;;;;;;;;;;;;9.37;67.23;101245.66;5076264;28;20423;-62
2022/05/31 03:41:41;;;;;;;;;;;;;;;9.38;67.76;101244.66;5070360;28;19925;-61
2022/05/31 03:44:06;;;;;;;;;;;;;;;9.39;66.72;101243.69;5068953;28;19921;-63
2022/05/31 03:46:31;;;;;;;;;;;;;;;9.41;67.32;101245.22;5069058;28;19971;-62
2022/05/31 03:48:58;;;;;;;;;;;;;;;9.42;68.37;101243.38;5070755;28;19955;-62
2022/05/31 03:51:23;;;;;;;;;;;;;;;9.42;67.50;101243.38;5071128;28;19920;-61
2022/05/31 03:53:49;;;;;;;;;;;;;;;9.43;67.68;101250.38;5070321;28;19921;-61
2022/05/31 03:56:14;;;;;;;;;;;;;;;9.41;67.75;101239.91;5069351;28;19931;-62
2022/05/31 03:58:39;;;;;;;;;;;;;;;9.40;67.31;101245.34;5067637;28;20313;-61
2022/05/31 04:01:05;;;;;;;;;;;;;;;9.41;67.54;101247.00;5067943;28;20367;-62
2022/05/31 04:03:30;;;;;;;;;;;;;;;9.40;67.44;101240.06;5064905;28;20050;-61
2022/05/31 04:05:55;;;;;;;;;;;;;;;9.39;69.13;101238.41;5068106;28;20368;-60
2022/05/31 04:08:21;;;;;;;;;;;;;;;9.37;67.26;101245.66;5070706;28;20305;-62
2022/05/31 04:10:47;;;;;;;;;;;;;;;9.37;67.82;101240.34;5069840;28;19960;-62
2022/05/31 04:13:13;;;;;;;;;;;;;;;9.38;67.39;101240.19;5075122;28;19927;-62
2022/05/31 04:15:38;;;;;;;;;;;;;;;9.41;68.49;101239.06;5071760;28;19995;-62
2022/05/31 04:18:04;;;;;;;;;;;;;;;9.40;66.89;101242.72;5071331;28;19920;-62
2022/05/31 04:20:30;;;;;;;;;;;;;;;9.41;67.23;101239.06;5072703;28;19916;-62
2022/05/31 04:25:40;;;;;;;;;;;;;;;9.44;67.42;101243.25;5021883;28;20005;-62
2022/05/31 04:28:06;;;;;;;;;;;;;;;9.45;67.66;101243.13;5077678;28;19960;-62
2022/05/31 04:30:31;;;;;;;;;;;;;;;9.46;67.71;101244.78;5068470;28;20314;-62
2022/05/31 04:32:57;;;;;;;;;;;;;;;9.44;67.74;101241.44;5061932;28;20023;-61
2022/05/31 04:35:22;;;;;;;;;;;;;;;9.40;68.56;101240.06;5068193;28;19920;-61
2022/05/31 04:37:47;;;;;;;;;;;;;;;9.38;68.74;101242.84;5067645;28;19954;-61
2022/05/31 04:40:13;;;;;;;;;;;;;;;9.40;67.36;101234.75;5064842;28;20074;-62
2022/05/31 04:42:39;;;;;;;;;;;;;;;9.42;67.47;101238.09;5074251;28;20021;-61
2022/05/31 04:45:04;;;;;;;;;;;;;;;9.44;67.63;101241.44;5075176;28;19920;-62
2022/05/31 04:47:29;;;;;;;;;;;;;;;9.45;67.89;101242.25;5051248;28;20590;-62
2022/05/31 04:49:54;;;;;;;;;;;;;;;9.45;67.57;101235.16;5064690;28;19988;-62
2022/05/31 04:52:20;;;;;;;;;;;;;;;9.45;68.43;101234.31;5061134;28;19924;-63
2022/05/31 04:54:45;;;;;;;;;;;;;;;9.46;67.74;101236.84;5061539;28;19923;-62
2022/05/31 04:57:10;;;;;;;;;;;;;;;9.47;67.89;101235.03;5063813;28;20209;-62
2022/05/31 04:59:36;;;;;;;;;;;;;;;9.50;68.67;101234.72;5060374;28;19928;-62
2022/05/31 05:02:01;;;;;;;;;;;;;;;9.52;68.18;101227.50;5061512;28;19928;-62
2022/05/31 05:04:26;;;;;;;;;;;;;;;9.55;68.58;101233.34;5064271;28;20886;-61
2022/05/31 05:06:51;;;;;;;;;;;;;;;9.57;68.70;101224.41;5064079;28;19928;-61
2022/05/31 05:09:16;;;;;;;;;;;;;;;9.61;67.83;101220.47;5062947;28;19924;-62
2022/05/31 05:11:41;;;;;;;;;;;;;;;9.63;67.71;101226.47;5062516;28;19927;-61
2022/05/31 05:14:07;;;;;;;;;;;;;;;9.65;68.01;101230.66;5065043;28;19920;-62
2022/05/31 05:16:32;;;;;;;;;;;;;;;9.68;68.02;101224.22;5050529;28;20091;-62
2022/05/31 05:18:57;;;;;;;;;;;;;;;9.73;68.23;101224.63;5067777;28;19958;-62
2022/05/31 05:21:22;;;;;;;;;;;;;;;9.79;67.50;101220.53;5069670;28;19925;-62
2022/05/31 05:23:48;;;;;;;;;;;;;;;9.82;67.77;101223.72;5067279;28;19935;-62
2022/05/31 05:26:13;;;;;;;;;;;;;;;9.81;69.77;101219.41;5065095;28;20339;-62
2022/05/31 05:31:27;;;;;;;;;;;;;;;9.83;68.97;101225.38;5065014;28;19951;-62
2022/05/31 05:33:53;;;;;;;;;;;;;;;9.87;69.02;101225.94;5067191;28;19944;-62
2022/05/31 05:36:19;;;;;;;;;;;;;;;9.92;68.57;101222.84;5067831;28;19932;-62
2022/05/31 05:38:44;;;;;;;;;;;;;;;9.95;68.41;101225.19;5069068;28;19920;-62
2022/05/31 05:41:10;;;;;;;;;;;;;;;9.99;68.67;101223.94;5068978;28;19920;-62
2022/05/31 05:43:35;;;;;;;;;;;;;;;10.00;69.34;101224.75;5067083;28;19920;-63
2022/05/31 05:46:00;;;;;;;;;;;;;;;10.03;67.92;101224.47;5064021;28;19924;-62
2022/05/31 05:48:25;;;;;;;;;;;;;;;10.03;68.89;101221.81;5069655;28;20401;-62
2022/05/31 05:50:50;;;;;;;;;;;;;;;10.05;68.83;101217.19;5050369;28;20007;-63
2022/05/31 05:53:16;;;;;;;;;;;;;;;10.00;68.72;101225.59;5065651;28;19921;-62
2022/05/31 05:55:41;;;;;;;;;;;;;;;10.02;68.43;101223.63;5065785;28;19924;-62
2022/05/31 05:58:09;;;;;;;;;;;;;;;10.04;69.97;101232.28;5044688;28;20391;-63
2022/05/31 06:00:41;;;;;;;;;;;;;;;10.06;69.36;101222.34;5064486;28;20053;-62
2022/05/31 06:03:10;;;;;;;;;;;;;;;10.11;69.14;101231.69;5070238;28;19917;-62
2022/05/31 06:05:35;;;;;;;;;;;;;;;10.13;70.07;101222.59;5060505;28;19928;-62
2022/05/31 06:08:29;;;;;;;;;;;;;;;10.18;68.80;101224.78;5065580;28;19944;-62
2022/05/31 06:11:04;;;;;;;;;;;;;;;10.19;69.33;101224.66;5059646;28;19920;-62
2022/05/31 06:13:34;;;;;;;;;;;;;;;10.25;68.81;101228.50;5065890;28;19927;-61
2022/05/31 06:15:59;;;;;;;;;;;;;;;10.34;69.02;101224.13;5066918;28;20006;-63
2022/05/31 06:18:28;;;;;;;;;;;;;;;10.39;69.89;101219.22;5046363;28;19970;-62
2022/05/31 06:20:56;;;;;;;;;;;;;;;10.49;69.39;101219.16;5045712;28;20256;-62
2022/05/31 06:23:21;;;;;;;;;;;;;;;10.61;69.31;101217.94;5050067;28;20566;-62
2022/05/31 06:25:47;;;;;;;;;;;;;;;10.69;69.33;101213.69;5046177;28;19921;-63
2022/05/31 06:28:12;;;;;;;;;;;;;;;10.73;69.41;101215.91;5045088;28;19944;-62
2022/05/31 06:30:38;;;;;;;;;;;;;;;10.81;69.58;101215.13;5044838;28;20047;-63
2022/05/31 06:33:03;;;;;;;;;;;;;;;10.97;70.03;101222.41;5046171;28;20401;-63
2022/05/31 06:35:28;;;;;;;;;;;;;;;11.05;69.59;101224.25;5048974;28;19924;-62
2022/05/31 06:37:53;;;;;;;;;;;;;;;11.15;69.15;101224.19;5043843;28;19974;-63
2022/05/31 06:40:19;;;;;;;;;;;;;;;11.23;68.72;101226.03;5045315;28;19925;-63
2022/05/31 06:42:44;;;;;;;;;;;;;;;11.26;69.58;101223.06;5043688;28;20011;-62
2022/05/31 06:45:09;;;;;;;;;;;;;;;11.32;69.30;101225.09;5052113;28;19921;-62
2022/05/31 06:47:34;;;;;;;;;;;;;;;11.38;70.14;101232.44;5051241;28;20249;-62
2022/05/31 06:49:59;;;;;;;;;;;;;;;11.42;69.11;101225.84;5053520;28;19986;-62
2022/05/31 06:57:53;;;;;;;;;;;;;;;11.50;69.75;101229.50;5050133;28;19936;-62
2022/05/31 07:00:19;;;;;;;;;;;;;;;11.53;69.72;101226.53;5049979;28;19921;-62
2022/05/31 07:02:44;;;;;;;;;;;;;;;11.61;69.06;101228.41;5041148;28;19927;-63
2022/05/31 07:05:11;;;;;;;;;;;;;;;11.76;69.32;101231.28;5049472;28;19924;-62
2022/05/31 07:07:37;;;;;;;;;;;;;;;11.96;68.85;101227.41;5050810;28;19943;-62
2022/05/31 07:10:03;;;;;;;;;;;;;;;12.16;68.01;101224.47;5043732;28;19928;-62
2022/05/31 07:12:29;;;;;;;;;;;;;;;12.35;67.71;101231.31;5046599;28;20018;-62
2022/05/31 07:14:54;;;;;;;;;;;;;;;12.56;65.44;101232.69;5044170;28;19952;-63
2022/05/31 07:17:19;;;;;;;;;;;;;;;12.73;66.22;101220.22;5053015;28;20012;-63
2022/05/31 07:19:44;;;;;;;;;;;;;;;12.90;65.44;101222.88;5066762;28;19928;-62
2022/05/31 07:22:09;;;;;;;;;;;;;;;13.04;63.54;101216.06;5067342;28;19952;-62
2022/05/31 07:24:35;;;;;;;;;;;;;;;13.18;64.73;101215.34;5063526;28;19967;-63
2022/05/31 07:27:00;;;;;;;;;;;;;;;13.33;64.74;101212.00;5065472;28;19952;-62
2022/05/31 07:29:25;;;;;;;;;;;;;;;13.40;62.97;101222.78;5063211;28;19979;-62
2022/05/31 07:31:50;;;;;;;;;;;;;;;13.43;62.80;101225.13;5062197;28;19959;-63
2022/05/31 07:34:16;;;;;;;;;;;;;;;13.43;64.32;101217.13;5064406;28;19928;-63
2022/05/31 07:36:42;;;;;;;;;;;;;;;13.44;63.40;101216.13;5061773;28;19977;-62
2022/05/31 07:39:15;;;;;;;;;;;;;;;13.50;64.25;101218.13;5064296;28;19952;-63
2022/05/31 07:41:41;;;;;;;;;;;;;;;13.54;63.83;101223.94;5063487;28;19974;-60
2022/05/31 07:44:06;;;;;;;;;;;;;;;13.62;64.01;101221.25;5064744;28;20043;-60
2022/05/31 07:46:32;;;;;;;;;;;;;;;13.71;63.34;101220.22;5065217;28;20380;-61
2022/05/31 07:48:58;;;;;;;;;;;;;;;13.81;63.08;101209.34;5065841;28;19928;-59
2022/05/31 07:51:24;;;;;;;;;;;;;;;13.88;63.11;101211.31;5063875;28;19948;-60
2022/05/31 07:53:51;;;;;;;;;;;;;;;13.93;63.25;101201.81;5067067;28;20276;-59
2022/05/31 07:56:16;;;;;;;;;;;;;;;13.99;62.70;101202.94;5067379;28;19928;-59
2022/05/31 07:58:42;;;;;;;;;;;;;;;14.02;62.67;101199.94;5067101;28;19924;-59
2022/05/31 08:01:10;;;;;;;;;;;;;;;14.03;62.21;101196.25;5071097;28;19975;-60
2022/05/31 08:03:36;;;;;;;;;;;;;;;14.09;60.72;101200.88;5069746;28;19928;-60
2022/05/31 08:06:02;;;;;;;;;;;;;;;14.10;61.18;101207.88;5069569;28;21469;-59
2022/05/31 08:08:27;;;;;;;;;;;;;;;14.07;60.96;101192.19;5070811;28;20367;-60
2022/05/31 08:10:52;;;;;;;;;;;;;;;14.16;61.99;101200.19;5067018;28;19925;-58
2022/05/31 08:13:18;;;;;;;;;;;;;;;14.31;61.87;101197.56;5072030;28;19920;-62
2022/05/31 08:15:43;;;;;;;;;;;;;;;14.42;60.34;101194.50;5060624;28;19939;-61
2022/05/31 08:18:08;;;;;;;;;;;;;;;14.56;61.33;101195.53;5060522;28;19943;-60
2022/05/31 08:20:33;;;;;;;;;;;;;;;14.71;61.08;101192.09;5063665;28;19928;-59
2022/05/31 08:23:01;;;;;;;;;;;;;;;14.83;60.50;101190.69;5064846;28;19928;-61
2022/05/31 08:25:26;;;;;;;;;;;;;;;14.92;60.25;101184.22;5062615;28;20013;-58
2022/05/31 08:27:52;;;;;;;;;;;;;;;15.04;59.24;101194.47;5059371;28;20023;-59
2022/05/31 08:30:17;;;;;;;;;;;;;;;15.12;59.66;101181.06;5061939;28;19924;-61
2022/05/31 08:32:42;;;;;;;;;;;;;;;15.22;58.94;101182.59;5063004;28;19928;-59
2022/05/31 08:35:07;;;;;;;;;;;;;;;15.28;59.06;101179.19;5063179;28;19931;-59
2022/05/31 08:37:33;;;;;;;;;;;;;;;15.35;59.94;101188.16;5064336;28;20341;-59
2022/05/31 08:39:58;;;;;;;;;;;;;;;15.51;58.97;101180.94;5066786;28;19953;-61
2022/05/31 08:42:30;;;;;;;;;;;;;;;15.64;57.89;101191.78;5061727;28;19948;-60
2022/05/31 08:45:00;;;;;;;;;;;;;;;15.77;58.61;101185.78;5060463;28;19967;-60
2022/05/31 08:47:25;;;;;;;;;;;;;;;15.83;57.65;101186.88;5060892;28;19920;-61
2022/05/31 08:52:45;;;;;;;;;;;;;;;15.65;56.33;101182.78;5065009;28;19970;-61
2022/05/31 08:58:03;;;;;;;;;;;;;;;15.83;56.00;101185.03;5063092;28;19981;-61
2022/05/31 09:00:31;;;;;;;;;;;;;;;15.86;56.90;101181.16;5064635;28;19965;-60
2022/05/31 09:03:10;;;;;;;;;;;;;;;15.84;57.11;101177.84;5064102;28;19924;-61
2022/05/31 09:05:40;;;;;;;;;;;;;;;15.85;56.19;101177.66;5063908;28;19929;-61
2022/05/31 09:08:22;;;;;;;;;;;;;;;15.97;56.54;101186.06;5063819;28;19921;-61
2022/05/31 09:10:52;;;;;;;;;;;;;;;16.07;56.50;101179.56;5063954;28;19934;-63
2022/05/31 09:13:23;;;;;;;;;;;;;;;16.03;54.72;101189.00;5063517;28;20015;-60
2022/05/31 09:15:54;;;;;;;;;;;;;;;15.77;55.62;101184.94;5065956;28;19928;-61
2022/05/31 09:18:31;;;;;;;;;;;;;;;15.72;56.64;101183.69;5066537;28;20461;-60
2022/05/31 09:20:58;;;;;;;;;;;;;;;15.82;55.81;101182.53;5047953;28;19928;-62
2022/05/31 09:23:28;;;;;;;;;;;;;;;15.94;55.33;101186.41;5064378;28;20014;-61
2022/05/31 09:26:12;;;;;;;;;;;;;;;16.07;54.73;101180.38;5066344;28;19974;-60
2022/05/31 09:28:55;;;;;;;;;;;;;;;16.25;53.59;101181.81;5065584;28;19940;-60
2022/05/31 09:31:35;;;;;;;;;;;;;;;16.27;53.64;101182.44;5063128;28;19989;-62
2022/05/31 09:34:25;;;;;;;;;;;;;;;16.34;54.81;101182.50;5065458;28;19932;-60
2022/05/31 09:36:59;;;;;;;;;;;;;;;16.76;50.52;101172.78;5062824;28;19934;-61
2022/05/31 09:39:47;;;;;;;;;;;;;;;16.40;52.11;101185.22;5064390;28;19964;-61
2022/05/31 09:42:25;;;;;;;;;;;;;;;16.48;53.73;101186.94;5063635;28;19928;-60
2022/05/31 09:45:02;;;;;;;;;;;;;;;16.65;53.60;101181.31;5063157;28;19940;-62
2022/05/31 09:47:28;;;;;;;;;;;;;;;16.76;52.01;101179.97;5065702;28;19929;-62
2022/05/31 09:49:54;;;;;;;;;;;;;;;16.84;49.82;101174.47;5067833;28;19940;-60
2022/05/31 09:52:29;;;;;;;;;;;;;;;16.89;51.87;101173.88;5062713;28;19928;-61
2022/05/31 09:58:00;;;;;;;;;;;;;;;17.06;52.97;101161.88;5062531;28;20917;-59
2022/05/31 10:00:25;;;;;;;;;;;;;;;17.24;52.02;101173.09;5063631;28;19947;-59
2022/05/31 10:03:04;;;;;;;;;;;;;;;17.41;51.60;101173.59;5065137;28;20370;-60
2022/05/31 10:05:29;;;;;;;;;;;;;;;17.45;50.64;101164.97;5063128;28;19985;-58
2022/05/31 10:07:54;;;;;;;;;;;;;;;17.41;51.47;101170.94;5068241;28;19975;-59
2022/05/31 10:10:27;;;;;;;;;;;;;;;17.51;51.48;101166.00;5046903;28;20066;-58
2022/05/31 10:12:54;;;;;;;;;;;;;;;17.63;51.57;101168.13;5063536;28;19928;-61
2022/05/31 10:15:37;;;;;;;;;;;;;;;17.54;51.83;101162.09;5062107;28;19935;-58
2022/05/31 10:18:04;;;;;;;;;;;;;;;17.29;49.16;101155.41;5061103;28;19959;-61
2022/05/31 10:20:30;;;;;;;;;;;;;;;17.07;51.18;101158.16;5052360;28;20327;-61
2022/05/31 10:23:00;;;;;;;;;;;;;;;16.94;49.44;101163.41;5069554;28;19970;-62
2022/05/31 10:25:33;;;;;;;;;;;;;;;16.72;51.08;101166.13;5070354;28;19924;-60
2022/05/31 10:28:00;;;;;;;;;;;;;;;16.63;51.49;101167.31;5074547;28;19920;-59
2022/05/31 10:30:26;;;;;;;;;;;;;;;16.35;52.40;101165.41;5073925;28;19966;-60
2022/05/31 10:32:54;;;;;;;;;;;;;;;16.27;53.01;101169.88;5069100;28;19932;-59
2022/05/31 10:35:25;;;;;;;;;;;;;;;16.26;51.20;101168.25;5073098;28;19966;-58
2022/05/31 10:37:59;;;;;;;;;;;;;;;16.29;52.42;101166.19;5072051;28;19921;-58
2022/05/31 10:40:30;;;;;;;;;;;;;;;16.37;51.74;101161.53;5071280;28;19927;-59
2022/05/31 10:42:58;;;;;;;;;;;;;;;16.37;52.01;101160.69;5076133;28;20297;-58
2022/05/31 10:45:27;;;;;;;;;;;;;;;16.35;52.25;101158.22;5073285;28;19978;-58
2022/05/31 10:47:55;;;;;;;;;;;;;;;16.33;52.67;101156.78;5066141;28;19932;-59
2022/05/31 10:50:20;;;;;;;;;;;;;;;16.32;51.19;101163.16;5055755;28;21862;-58
2022/05/31 10:52:52;;;;;;;;;;;;;;;16.27;51.65;101161.88;5067238;28;19955;-58
2022/05/31 10:55:37;;;;;;;;;;;;;;;16.16;52.57;101161.53;5061468;28;19928;-58
2022/05/31 10:58:17;;;;;;;;;;;;;;;16.13;52.38;101157.38;5069549;28;19924;-59
2022/05/31 11:01:01;;;;;;;;;;;;;;;16.16;51.25;101162.38;5072678;28;20390;-60
2022/05/31 11:03:32;;;;;;;;;;;;;;;15.97;51.16;101155.78;5076736;28;19990;-60
2022/05/31 11:06:06;;;;;;;;;;;;;;;15.85;52.20;101158.13;5073743;28;20399;-57
2022/05/31 11:11:53;;;;;;;;;;;;;;;15.71;53.48;101154.47;5029955;28;19931;-61
2022/05/31 11:14:22;;;;;;;;;;;;;;;15.69;53.77;101162.66;5067806;28;19927;-60
2022/05/31 11:17:06;;;;;;;;;;;;;;;15.60;53.89;101164.59;5065890;28;19925;-60
2022/05/31 11:19:44;;;;;;;;;;;;;;;15.56;54.94;101163.34;5066215;28;19968;-60
2022/05/31 11:22:23;;;;;;;;;;;;;;;15.58;55.36;101163.13;5068191;28;20007;-60
2022/05/31 11:24:49;;;;;;;;;;;;;;;15.65;54.21;101161.41;5068441;28;19958;-60
2022/05/31 11:27:17;;;;;;;;;;;;;;;15.68;54.92;101160.16;5069174;28;20388;-60
2022/05/31 11:30:05;;;;;;;;;;;;;;;15.81;54.67;101170.19;5068557;28;19927;-60
2022/05/31 11:32:46;;;;;;;;;;;;;;;15.71;54.78;101163.31;5044537;28;19967;-61
2022/05/31 11:35:30;;;;;;;;;;;;;;;15.70;55.02;101164.31;5072436;28;19938;-60
2022/05/31 11:38:03;;;;;;;;;;;;;;;15.77;54.63;101159.06;5065397;28;20371;-60
2022/05/31 11:40:30;;;;;;;;;;;;;;;15.85;55.21;101171.50;5063339;28;19982;-61
2022/05/31 11:43:14;;;;;;;;;;;;;;;16.06;54.07;101169.88;5065434;28;20378;-61
2022/05/31 11:45:41;;;;;;;;;;;;;;;16.31;53.55;101174.84;5063880;28;19943;-61
2022/05/31 11:48:09;;;;;;;;;;;;;;;16.71;52.89;101167.16;5067253;28;20015;-61
2022/05/31 11:50:53;;;;;;;;;;;;;;;16.88;52.49;101174.91;5063210;28;19928;-61
2022/05/31 11:53:21;;;;;;;;;;;;;;;16.95;52.28;101167.75;5063925;28;19991;-61
2022/05/31 11:55:46;;;;;;;;;;;;;;;16.90;51.99;101167.50;5064559;28;19974;-61
2022/05/31 11:58:15;;;;;;;;;;;;;;;16.84;50.98;101169.13;5065686;28;19932;-61
2022/05/31 12:00:44;;;;;;;;;;;;;;;16.86;51.62;101168.91;5064334;28;19929;-62
2022/05/31 12:03:20;;;;;;;;;;;;;;;16.84;48.98;101173.63;5063065;28;19928;-61
2022/05/31 12:05:52;;;;;;;;;;;;;;;16.84;50.56;101170.97;5064961;28;19921;-62
2022/05/31 12:08:20;;;;;;;;;;;;;;;16.85;50.18;101172.59;5062853;28;19944;-62
2022/05/31 12:10:55;;;;;;;;;;;;;;;16.87;50.48;101165.22;5063909;28;20405;-61
2022/05/31 12:13:22;;;;;;;;;;;;;;;16.92;50.18;101163.59;5062907;28;19950;-62
2022/05/31 12:15:50;;;;;;;;;;;;;;;16.97;51.19;101168.38;5062940;28;20394;-61
2022/05/31 12:18:18;;;;;;;;;;;;;;;16.99;46.19;101163.66;5066892;28;19940;-61
2022/05/31 12:20:43;;;;;;;;;;;;;;;16.99;47.43;101165.50;5067625;28;19924;-61
2022/05/31 12:23:09;;;;;;;;;;;;;;;17.03;49.53;101164.13;5069388;28;19973;-61
2022/05/31 12:25:37;;;;;;;;;;;;;;;17.08;47.15;101149.09;5060424;28;19934;-61
2022/05/31 12:28:20;;;;;;;;;;;;;;;17.35;45.87;101143.03;5055255;28;20532;-61
2022/05/31 12:31:04;;;;;;;;;;;;;;;17.77;48.68;101145.69;5065255;28;19935;-61
2022/05/31 12:36:05;;;;;;;;;;;;;;;18.35;44.13;101141.66;5070833;28;19928;-60
2022/05/31 12:38:50;;;;;;;;;;;;;;;18.51;46.42;101145.78;5076857;28;19920;-62
2022/05/31 12:41:31;;;;;;;;;;;;;;;18.59;46.58;101142.06;5077255;28;19920;-60
2022/05/31 12:43:58;;;;;;;;;;;;;;;18.71;45.55;101141.44;5076347;28;19924;-61
2022/05/31 12:46:31;;;;;;;;;;;;;;;18.75;43.39;101137.31;5071368;28;19997;-62
2022/05/31 12:48:58;;;;;;;;;;;;;;;18.58;45.33;101137.75;5071147;28;20394;-62
2022/05/31 12:51:24;;;;;;;;;;;;;;;18.35;46.20;101136.28;5076531;28;19921;-57
2022/05/31 12:53:49;;;;;;;;;;;;;;;18.17;45.39;101128.03;5077972;28;19961;-58
2022/05/31 12:56:34;;;;;;;;;;;;;;;18.12;46.52;101137.50;5073602;28;19927;-60
2022/05/31 12:59:00;;;;;;;;;;;;;;;18.00;46.67;101137.28;5068369;28;19929;-60
2022/05/31 13:01:25;;;;;;;;;;;;;;;17.90;46.55;101142.19;5069151;28;20423;-60
2022/05/31 13:03:50;;;;;;;;;;;;;;;17.76;45.06;101146.69;5077714;28;19928;-60
2022/05/31 13:06:18;;;;;;;;;;;;;;;17.65;47.10;101152.66;5074862;28;20635;-60
2022/05/31 13:08:51;;;;;;;;;;;;;;;17.53;47.70;101153.25;5075090;28;19975;-60
2022/05/31 13:20:00;;;;;;;;;;;;;;;16.33;49.81;101179.00;5078776;28;19923;-60
2022/05/31 13:22:25;;;;;;;;;;;;;;;15.89;52.47;101175.41;5085345;28;19931;-60